createdAt,value
2023-05-25T00:01:56.207Z,101681.73
2023-05-25T00:04:23.442Z,101681.83
2023-05-25T00:06:56.968Z,101676.41
2023-05-25T00:09:19.820Z,101672.59
2023-05-25T00:11:55.459Z,101666.59
2023-05-25T00:14:32.147Z,101664.33
2023-05-25T00:16:52.766Z,101661.23
2023-05-25T00:19:29.497Z,101662.77
2023-05-25T00:22:05.404Z,101670.52
2023-05-25T00:24:34.860Z,101672.89
2023-05-25T00:26:55.589Z,101674.95
2023-05-25T00:29:19.144Z,101668.38
2023-05-25T00:31:54.264Z,101671.25
2023-05-25T00:34:30.438Z,101664.81
2023-05-25T00:37:05.023Z,101660.14
2023-05-25T00:39:31.610Z,101660.38
2023-05-25T00:41:53.571Z,101659.10
2023-05-25T00:44:22.795Z,101651.34
2023-05-25T00:46:57.585Z,101650.14
2023-05-25T00:49:20.646Z,101647.64
2023-05-25T00:51:55.864Z,101643.84
2023-05-25T00:54:30.633Z,101642.39
2023-05-25T00:57:05.591Z,101647.55
2023-05-25T00:59:46.831Z,101649.91
2023-05-25T01:02:12.027Z,101647.58
2023-05-25T01:04:46.611Z,101651.65
2023-05-25T01:07:21.137Z,101648.41
2023-05-25T01:10:00.425Z,101646.45
2023-05-25T01:12:26.101Z,101642.33
2023-05-25T01:15:03.527Z,101641.16
2023-05-25T01:17:41.496Z,101648.58
2023-05-25T01:22:41.549Z,101637.42
2023-05-25T01:25:23.755Z,101643.23
2023-05-25T01:27:57.909Z,101642.94
2023-05-25T01:30:28.770Z,101640.90
2023-05-25T01:32:57.009Z,101642.27
2023-05-25T01:35:25.841Z,101641.20
2023-05-25T01:38:04.989Z,101640.70
2023-05-25T01:40:26.621Z,101641.09
2023-05-25T01:43:02.268Z,101636.42
2023-05-25T01:45:29.903Z,101641.52
2023-05-25T01:48:29.437Z,101643.92
2023-05-25T01:51:08.518Z,101650.54
2023-05-25T01:53:46.219Z,101650.73
2023-05-25T01:56:22.797Z,101654.43
2023-05-25T01:58:52.023Z,101654.81
2023-05-25T02:01:20.570Z,101657.14
2023-05-25T02:03:56.700Z,101652.25
2023-05-25T02:06:22.596Z,101648.66
2023-05-25T02:08:57.829Z,101646.36
2023-05-25T02:11:32.892Z,101649.14
2023-05-25T02:13:49.861Z,101649.48
2023-05-25T02:16:21.402Z,101649.55
2023-05-25T02:18:56.330Z,101646.02
2023-05-25T02:21:30.125Z,101642.99
2023-05-25T02:24:04.812Z,101643.77
2023-05-25T02:26:31.234Z,101638.64
2023-05-25T02:29:05.470Z,101640.86
2023-05-25T02:31:32.740Z,101638.23
2023-05-25T02:34:07.096Z,101637.70
2023-05-25T02:36:33.080Z,101634.23
2023-05-25T02:39:10.083Z,101634.08
2023-05-25T02:41:43.934Z,101629.19
2023-05-25T02:44:18.100Z,101625.45
2023-05-25T02:46:48.585Z,101626.46
2023-05-25T02:49:16.033Z,101623.24
2023-05-25T02:51:43.689Z,101626.07
2023-05-25T02:54:12.811Z,101629.41
2023-05-25T02:56:48.340Z,101625.55
2023-05-25T02:59:09.081Z,101618.14
2023-05-25T03:01:41.860Z,101612.98
2023-05-25T03:04:17.073Z,101612.71
2023-05-25T03:06:46.495Z,101611.45
2023-05-25T03:09:21.355Z,101609.84
2023-05-25T03:11:56.038Z,101608.98
2023-05-25T03:14:24.717Z,101602.97
2023-05-25T03:16:43.613Z,101601.98
2023-05-25T03:19:03.085Z,101603.64
2023-05-25T03:21:38.796Z,101606.98
2023-05-25T03:24:13.535Z,101609.62
2023-05-25T03:26:47.494Z,101612.13
2023-05-25T03:29:15.129Z,101608.70
2023-05-25T03:31:34.813Z,101606.03
2023-05-25T03:34:09.213Z,101605.53
2023-05-25T03:36:28.949Z,101607.62
2023-05-25T03:39:03.280Z,101605.45
2023-05-25T03:41:38.211Z,101601.00
2023-05-25T03:43:58.400Z,101602.20
2023-05-25T03:46:23.834Z,101597.57
2023-05-25T03:48:59.183Z,101597.90
2023-05-25T03:51:27.332Z,101594.75
2023-05-25T03:54:01.281Z,101592.36
2023-05-25T03:56:27.498Z,101591.35
2023-05-25T03:58:51.809Z,101588.09
2023-05-25T04:01:30.268Z,101589.89
2023-05-25T04:03:56.766Z,101589.07
2023-05-25T04:06:32.292Z,101589.20
2023-05-25T04:08:55.778Z,101589.97
2023-05-25T04:11:11.624Z,101591.41
2023-05-25T04:13:26.449Z,101593.08
2023-05-25T04:15:42.551Z,101591.63
2023-05-25T04:18:06.142Z,101590.49
2023-05-25T04:20:21.775Z,101591.20
2023-05-25T04:22:40.358Z,101594.20
2023-05-25T04:24:55.520Z,101596.91
2023-05-25T04:27:29.690Z,101597.50
2023-05-25T04:29:51.567Z,101594.69
2023-05-25T04:32:33.191Z,101599.31
2023-05-25T04:35:17.617Z,101607.86
2023-05-25T04:37:33.778Z,101603.73
2023-05-25T04:40:13.478Z,101614.49
2023-05-25T04:42:32.578Z,101614.58
2023-05-25T04:44:59.725Z,101611.59
2023-05-25T04:47:36.390Z,101610.84
2023-05-25T04:49:59.273Z,101615.23
2023-05-25T04:52:16.622Z,101611.08
2023-05-25T04:54:31.568Z,101611.94
2023-05-25T04:56:48.163Z,101607.84
2023-05-25T04:59:01.998Z,101604.58
2023-05-25T05:01:16.793Z,101603.58
2023-05-25T05:03:31.111Z,101605.73
2023-05-25T05:05:47.007Z,101607.89
2023-05-25T05:08:07.201Z,101613.20
2023-05-25T05:10:21.909Z,101611.67
2023-05-25T05:12:41.928Z,101609.85
2023-05-25T05:14:57.329Z,101610.85
2023-05-25T05:17:16.529Z,101610.81
2023-05-25T05:19:30.338Z,101616.39
2023-05-25T05:22:06.430Z,101616.98
2023-05-25T05:24:22.787Z,101613.62
2023-05-25T05:26:59.216Z,101613.68
2023-05-25T05:29:40.688Z,101609.94
2023-05-25T05:32:09.993Z,101612.02
2023-05-25T05:34:44.064Z,101610.91
2023-05-25T05:37:18.570Z,101610.59
2023-05-25T05:39:39.251Z,101615.15
2023-05-25T05:42:13.817Z,101617.23
2023-05-25T05:44:48.147Z,101615.09
2023-05-25T05:47:22.443Z,101614.44
2023-05-25T05:49:57.177Z,101615.35
2023-05-25T05:52:21.153Z,101609.82
2023-05-25T05:54:56.066Z,101607.52
2023-05-25T05:57:30.403Z,101606.77
2023-05-25T06:00:07.907Z,101611.90
2023-05-25T06:02:34.552Z,101610.30
2023-05-25T06:05:11.149Z,101608.27
2023-05-25T06:07:46.300Z,101610.98
2023-05-25T06:10:16.698Z,101608.92
2023-05-25T06:12:51.205Z,101602.81
2023-05-25T06:15:11.707Z,101594.65
2023-05-25T06:17:45.916Z,101596.90
2023-05-25T06:20:16.491Z,101594.83
2023-05-25T06:22:49.330Z,101594.84
2023-05-25T06:25:23.423Z,101591.14
2023-05-25T06:27:45.052Z,101591.90
2023-05-25T06:30:01.366Z,101583.44
2023-05-25T06:32:27.325Z,101579.91
2023-05-25T06:34:50.047Z,101579.64
2023-05-25T06:37:11.490Z,101576.23
2023-05-25T06:39:47.225Z,101572.98
2023-05-25T06:42:15.556Z,101575.82
2023-05-25T06:44:52.167Z,101583.29
2023-05-25T06:47:26.317Z,101584.90
2023-05-25T06:50:00.677Z,101581.39
2023-05-25T06:52:29.356Z,101579.56
2023-05-25T06:55:05.007Z,101574.19
2023-05-25T06:57:38.754Z,101569.49
2023-05-25T07:00:09.882Z,101569.92
2023-05-25T07:02:37.343Z,101569.88
2023-05-25T07:05:04.014Z,101572.07
2023-05-25T07:07:24.349Z,101568.89
2023-05-25T07:09:52.625Z,101571.33
2023-05-25T07:12:19.360Z,101572.40
2023-05-25T07:14:53.798Z,101571.30
2023-05-25T07:17:20.079Z,101569.06
2023-05-25T07:19:54.208Z,101566.32
2023-05-25T07:22:14.392Z,101564.21
2023-05-25T07:24:49.879Z,101563.30
2023-05-25T07:27:24.044Z,101558.95
2023-05-25T07:29:43.239Z,101557.81
2023-05-25T07:32:08.402Z,101553.70
2023-05-25T07:34:39.494Z,101547.89
2023-05-25T07:37:15.772Z,101545.58
2023-05-25T07:39:44.463Z,101544.38
2023-05-25T07:42:22.163Z,101542.83
2023-05-25T07:44:45.784Z,101541.08
2023-05-25T07:47:14.922Z,101539.45
2023-05-25T07:49:49.821Z,101537.46
2023-05-25T07:52:23.551Z,101531.43
2023-05-25T07:54:52.494Z,101531.59
2023-05-25T07:57:29.169Z,101532.67
2023-05-25T08:00:03.002Z,101533.41
2023-05-25T08:02:26.208Z,101532.80
2023-05-25T08:04:58.952Z,101534.36
2023-05-25T08:07:20.300Z,101534.86
2023-05-25T08:09:47.252Z,101534.84
2023-05-25T08:12:38.615Z,101536.36
2023-05-25T08:15:17.490Z,101538.71
2023-05-25T08:17:38.010Z,101537.95
2023-05-25T08:20:13.720Z,101533.66
2023-05-25T08:22:39.428Z,101535.42
2023-05-25T08:25:16.348Z,101530.25
2023-05-25T08:27:43.104Z,101526.88
2023-05-25T08:30:19.742Z,101522.91
2023-05-25T08:32:44.903Z,101522.10
2023-05-25T08:35:21.798Z,101520.11
2023-05-25T08:37:50.174Z,101520.17
2023-05-25T08:40:26.421Z,101518.69
2023-05-25T08:42:54.664Z,101514.63
2023-05-25T08:45:49.657Z,101513.83
2023-05-25T08:48:35.724Z,101512.07
2023-05-25T08:51:04.798Z,101512.59
2023-05-25T08:53:34.129Z,101511.73
2023-05-25T08:56:10.871Z,101512.11
2023-05-25T08:58:45.932Z,101509.87
2023-05-25T09:01:23.426Z,101507.60
2023-05-25T09:03:49.200Z,101501.64
2023-05-25T09:06:26.520Z,101493.95
2023-05-25T09:09:01.548Z,101492.69
2023-05-25T09:11:40.679Z,101490.86
2023-05-25T09:14:15.213Z,101490.16
2023-05-25T09:16:47.220Z,101484.75
2023-05-25T09:19:23.243Z,101482.71
2023-05-25T09:21:46.473Z,101484.27
2023-05-25T09:24:23.473Z,101485.83
2023-05-25T09:26:50.784Z,101491.25
2023-05-25T09:29:20.982Z,101489.47
2023-05-25T09:31:54.230Z,101485.78
2023-05-25T09:34:35.215Z,101482.98
2023-05-25T09:37:17.697Z,101480.20
2023-05-25T09:39:47.175Z,101479.14
2023-05-25T09:42:22.593Z,101474.36
2023-05-25T09:44:58.995Z,101469.13
2023-05-25T09:47:26.832Z,101469.50
2023-05-25T09:49:55.731Z,101471.86
2023-05-25T09:52:30.744Z,101470.36
2023-05-25T09:54:52.575Z,101467.40
2023-05-25T09:57:19.138Z,101460.98
2023-05-25T09:59:55.547Z,101464.72
2023-05-25T10:02:25.452Z,101462.27
2023-05-25T10:04:49.761Z,101459.77
2023-05-25T10:07:29.409Z,101457.15
2023-05-25T10:09:59.262Z,101457.39
2023-05-25T10:12:35.490Z,101458.01
2023-05-25T10:15:11.703Z,101455.92
2023-05-25T10:17:52.389Z,101455.45
2023-05-25T10:20:18.051Z,101451.77
2023-05-25T10:23:00.611Z,101449.23
2023-05-25T10:25:29.531Z,101446.46
2023-05-25T10:28:03.783Z,101441.80
2023-05-25T10:30:27.246Z,101440.81
2023-05-25T10:33:02.887Z,101438.03
2023-05-25T10:35:27.329Z,101438.46
2023-05-25T10:38:00.197Z,101439.21
2023-05-25T10:40:20.118Z,101432.68
2023-05-25T10:42:45.179Z,101431.94
2023-05-25T10:45:20.087Z,101436.54
2023-05-25T10:47:45.194Z,101437.02
2023-05-25T10:50:29.895Z,101435.15
2023-05-25T10:53:08.933Z,101431.02
2023-05-25T10:55:45.652Z,101428.26
2023-05-25T10:58:17.443Z,101426.65
2023-05-25T11:01:04.147Z,101425.48
2023-05-25T11:03:56.624Z,101422.05
2023-05-25T11:07:06.618Z,101421.53
2023-05-25T11:09:44.646Z,101418.22
2023-05-25T11:12:21.952Z,101420.66
2023-05-25T11:15:24.479Z,101423.85
2023-05-25T11:18:17.876Z,101420.94
2023-05-25T11:20:36.560Z,101419.38
2023-05-25T11:23:24.200Z,101422.33
2023-05-25T11:25:55.442Z,101417.70
2023-05-25T11:28:23.542Z,101414.21
2023-05-25T11:30:51.967Z,101414.80
2023-05-25T11:33:18.732Z,101410.64
2023-05-25T11:35:54.771Z,101416.23
2023-05-25T11:38:23.211Z,101414.77
2023-05-25T11:40:42.171Z,101415.02
2023-05-25T11:43:03.133Z,101413.59
2023-05-25T11:45:39.765Z,101409.16
2023-05-25T11:48:16.539Z,101406.48
2023-05-25T11:50:41.799Z,101401.01
2023-05-25T11:53:11.718Z,101399.91
2023-05-25T11:55:42.169Z,101400.02
2023-05-25T11:58:11.293Z,101401.39
2023-05-25T12:00:46.437Z,101409.27
2023-05-25T12:03:31.841Z,101411.21
2023-05-25T12:06:00.473Z,101408.83
2023-05-25T12:08:38.870Z,101411.07
2023-05-25T12:11:14.695Z,101411.72
2023-05-25T12:13:50.176Z,101407.20
2023-05-25T12:16:24.646Z,101406.33
2023-05-25T12:19:00.057Z,101407.14
2023-05-25T12:21:22.395Z,101400.16
2023-05-25T12:23:50.207Z,101404.70
2023-05-25T12:26:18.985Z,101398.27
2023-05-25T12:29:05.737Z,101395.84
2023-05-25T12:31:42.430Z,101388.65
2023-05-25T12:34:14.698Z,101389.42
2023-05-25T12:36:52.807Z,101390.99
2023-05-25T12:39:40.346Z,101390.45
2023-05-25T12:42:20.385Z,101391.85
2023-05-25T12:44:45.319Z,101392.86
2023-05-25T12:47:23.619Z,101391.21
2023-05-25T12:49:50.330Z,101391.23
2023-05-25T12:52:36.639Z,101393.48
2023-05-25T12:55:27.016Z,101390.88
2023-05-25T12:57:53.683Z,101391.49
2023-05-25T13:00:31.309Z,101394.30
2023-05-25T13:03:02.256Z,101393.74
2023-05-25T13:05:38.672Z,101389.64
2023-05-25T13:08:13.069Z,101388.18
2023-05-25T13:10:37.445Z,101386.75
2023-05-25T13:13:05.948Z,101385.54
2023-05-25T13:15:32.187Z,101391.52
2023-05-25T13:17:55.466Z,101391.02
2023-05-25T13:20:30.768Z,101389.59
2023-05-25T13:22:56.815Z,101388.20
2023-05-25T13:25:20.377Z,101388.54
2023-05-25T13:27:55.428Z,101384.23
2023-05-25T13:30:30.142Z,101382.52
2023-05-25T13:32:59.569Z,101383.80
2023-05-25T13:35:47.116Z,101380.98
2023-05-25T13:38:20.821Z,101380.02
2023-05-25T13:40:45.396Z,101379.77
2023-05-25T13:43:19.058Z,101378.39
2023-05-25T13:45:54.305Z,101381.83
2023-05-25T13:48:28.816Z,101383.42
2023-05-25T13:51:04.570Z,101389.11
2023-05-25T13:53:37.931Z,101392.73
2023-05-25T13:56:04.402Z,101392.33
2023-05-25T13:58:39.685Z,101393.86
2023-05-25T14:01:15.136Z,101391.63
2023-05-25T14:03:48.832Z,101388.54
2023-05-25T14:06:22.743Z,101383.40
2023-05-25T14:08:45.728Z,101387.52
2023-05-25T14:11:27.343Z,101388.80
2023-05-25T14:13:54.530Z,101391.27
2023-05-25T14:16:21.354Z,101391.67
2023-05-25T14:18:56.627Z,101393.73
2023-05-25T14:21:25.542Z,101396.42
2023-05-25T14:23:54.056Z,101386.80
2023-05-25T14:26:30.010Z,101388.16
2023-05-25T14:28:52.799Z,101387.48
2023-05-25T14:31:26.887Z,101385.91
2023-05-25T14:33:52.750Z,101378.67
2023-05-25T14:36:20.793Z,101382.91
2023-05-25T14:38:55.855Z,101385.88
2023-05-25T14:41:23.859Z,101387.59
2023-05-25T14:43:43.322Z,101378.75
2023-05-25T14:46:02.838Z,101381.75
2023-05-25T14:48:29.392Z,101379.80
2023-05-25T14:50:52.529Z,101377.33
2023-05-25T14:53:26.518Z,101375.34
2023-05-25T14:56:00.626Z,101375.27
2023-05-25T14:58:35.383Z,101375.77
2023-05-25T15:00:54.308Z,101375.30
2023-05-25T15:03:27.009Z,101379.73
2023-05-25T15:05:57.957Z,101376.48
2023-05-25T15:08:26.617Z,101376.35
2023-05-25T15:11:02.194Z,101375.40
2023-05-25T15:13:30.983Z,101377.33
2023-05-25T15:16:10.209Z,101373.91
2023-05-25T15:18:36.447Z,101374.24
2023-05-25T15:21:15.888Z,101379.94
2023-05-25T15:23:52.350Z,101375.27
2023-05-25T15:26:26.801Z,101377.75
2023-05-25T15:29:01.796Z,101373.38
2023-05-25T15:31:30.273Z,101371.55
2023-05-25T15:34:06.676Z,101367.04
2023-05-25T15:36:39.183Z,101358.39
2023-05-25T15:39:14.273Z,101356.21
2023-05-25T15:41:37.732Z,101352.77
2023-05-25T15:44:02.422Z,101352.65
2023-05-25T15:46:21.853Z,101348.00
2023-05-25T15:48:43.203Z,101345.58
2023-05-25T15:51:18.137Z,101347.31
2023-05-25T15:53:44.770Z,101348.89
2023-05-25T15:56:11.409Z,101349.00
2023-05-25T15:58:36.333Z,101349.41
2023-05-25T16:01:10.749Z,101351.40
2023-05-25T16:03:36.677Z,101349.76
2023-05-25T16:06:00.912Z,101351.09
2023-05-25T16:08:25.992Z,101354.07
2023-05-25T16:10:51.740Z,101352.42
2023-05-25T16:13:27.587Z,101346.56
2023-05-25T16:15:59.378Z,101345.24
2023-05-25T16:18:28.800Z,101343.64
2023-05-25T16:21:02.700Z,101340.56
2023-05-25T16:23:28.184Z,101345.02
2023-05-25T16:25:49.677Z,101345.37
2023-05-25T16:28:16.174Z,101342.55
2023-05-25T16:30:46.922Z,101342.78
2023-05-25T16:33:15.510Z,101344.59
2023-05-25T16:35:49.565Z,101337.89
2023-05-25T16:38:06.916Z,101336.23
2023-05-25T16:40:31.359Z,101332.90
2023-05-25T16:43:00.899Z,101335.98
2023-05-25T16:45:36.235Z,101338.20
2023-05-25T16:48:03.866Z,101336.88
2023-05-25T16:50:38.851Z,101338.34
2023-05-25T16:53:07.910Z,101337.14
2023-05-25T16:55:34.606Z,101340.05
2023-05-25T16:58:10.864Z,101339.02
2023-05-25T17:00:45.388Z,101337.23
2023-05-25T17:03:19.408Z,101335.92
2023-05-25T17:05:40.838Z,101339.39
2023-05-25T17:08:16.049Z,101340.52
2023-05-25T17:10:54.628Z,101338.86
2023-05-25T17:13:22.617Z,101337.49
2023-05-25T17:15:45.899Z,101333.00
2023-05-25T17:18:20.714Z,101327.88
2023-05-25T17:20:55.079Z,101319.44
2023-05-25T17:23:22.096Z,101321.34
2023-05-25T17:25:43.592Z,101322.10
2023-05-25T17:28:04.664Z,101319.20
2023-05-25T17:30:27.527Z,101317.05
2023-05-25T17:32:50.363Z,101319.21
2023-05-25T17:35:14.217Z,101316.23
2023-05-25T17:37:40.934Z,101315.48
2023-05-25T17:40:08.677Z,101316.71
2023-05-25T17:42:34.981Z,101312.89
2023-05-25T17:44:58.157Z,101308.32
2023-05-25T17:47:25.254Z,101306.09
2023-05-25T17:49:54.527Z,101304.88
2023-05-25T17:52:28.282Z,101303.46
2023-05-25T17:55:01.718Z,101300.79
2023-05-25T17:57:23.481Z,101299.23
2023-05-25T17:59:50.351Z,101296.10
2023-05-25T18:02:20.868Z,101299.27
2023-05-25T18:04:38.010Z,101299.48
2023-05-25T18:07:04.363Z,101298.02
2023-05-25T18:09:25.270Z,101296.83
2023-05-25T18:11:57.428Z,101298.05
2023-05-25T18:14:24.654Z,101299.23
2023-05-25T18:16:48.721Z,101296.91
2023-05-25T18:19:23.737Z,101292.15
2023-05-25T18:21:58.383Z,101290.73
2023-05-25T18:24:33.260Z,101293.38
2023-05-25T18:26:55.632Z,101293.03
2023-05-25T18:29:29.824Z,101289.70
2023-05-25T18:31:48.509Z,101284.58
2023-05-25T18:34:20.782Z,101281.89
2023-05-25T18:36:48.703Z,101281.41
2023-05-25T18:39:19.619Z,101282.08
2023-05-25T18:41:40.773Z,101281.78
2023-05-25T18:44:00.285Z,101281.38
2023-05-25T18:46:29.615Z,101285.11
2023-05-25T18:49:02.296Z,101280.83
2023-05-25T18:51:27.377Z,101279.90
2023-05-25T18:53:53.636Z,101277.41
2023-05-25T18:56:28.660Z,101272.23
2023-05-25T18:58:56.654Z,101274.59
2023-05-25T19:01:21.094Z,101271.69
2023-05-25T19:03:58.069Z,101275.25
2023-05-25T19:06:22.899Z,101277.23
2023-05-25T19:08:57.864Z,101275.59
2023-05-25T19:11:33.464Z,101278.96
2023-05-25T19:14:08.425Z,101272.48
2023-05-25T19:16:45.188Z,101269.92
2023-05-25T19:19:21.217Z,101264.09
2023-05-25T19:21:56.379Z,101260.03
2023-05-25T19:24:29.060Z,101258.36
2023-05-25T19:27:01.318Z,101260.29
2023-05-25T19:29:21.808Z,101258.88
2023-05-25T19:31:58.694Z,101256.73
2023-05-25T19:34:27.442Z,101256.71
2023-05-25T19:37:10.956Z,101256.67
2023-05-25T19:39:43.699Z,101253.85
2023-05-25T19:42:18.110Z,101257.91
2023-05-25T19:44:46.560Z,101258.14
2023-05-25T19:47:21.872Z,101264.29
2023-05-25T19:49:57.763Z,101265.33
2023-05-25T19:52:33.605Z,101258.88
2023-05-25T19:54:57.606Z,101260.54
2023-05-25T19:57:32.178Z,101253.41
2023-05-25T20:00:11.405Z,101254.61
2023-05-25T20:02:55.259Z,101253.14
2023-05-25T20:05:29.344Z,101253.27
2023-05-25T20:07:57.297Z,101255.94
2023-05-25T20:10:33.939Z,101254.64
2023-05-25T20:13:07.580Z,101250.80
2023-05-25T20:15:41.502Z,101251.31
2023-05-25T20:18:10.225Z,101258.89
2023-05-25T20:20:35.157Z,101252.52
2023-05-25T20:22:59.554Z,101260.98
2023-05-25T20:25:23.814Z,101258.57
2023-05-25T20:27:57.968Z,101261.80
2023-05-25T20:30:27.390Z,101264.42
2023-05-25T20:32:55.792Z,101261.24
2023-05-25T20:35:30.600Z,101263.93
2023-05-25T20:38:04.270Z,101264.65
2023-05-25T20:40:40.746Z,101266.89
2023-05-25T20:43:15.486Z,101265.33
2023-05-25T20:45:43.963Z,101267.64
2023-05-25T20:48:09.128Z,101265.99
2023-05-25T20:50:37.679Z,101268.44
2023-05-25T20:53:12.184Z,101269.70
2023-05-25T20:55:35.931Z,101269.96
2023-05-25T20:58:02.070Z,101271.17
2023-05-25T21:00:36.160Z,101272.97
2023-05-25T21:03:11.423Z,101268.80
2023-05-25T21:05:41.022Z,101262.73
2023-05-25T21:08:16.781Z,101254.88
2023-05-25T21:10:37.901Z,101257.09
2023-05-25T21:13:10.809Z,101259.43
2023-05-25T21:15:45.632Z,101255.18
2023-05-25T21:18:13.412Z,101250.95
2023-05-25T21:20:48.921Z,101249.89
2023-05-25T21:23:13.420Z,101251.52
2023-05-25T21:25:49.188Z,101246.18
2023-05-25T21:28:12.111Z,101240.95
2023-05-25T21:30:47.759Z,101243.48
2023-05-25T21:33:14.589Z,101240.46
2023-05-25T21:35:42.440Z,101235.51
2023-05-25T21:38:17.525Z,101236.70
2023-05-25T21:40:52.478Z,101233.41
2023-05-25T21:43:23.588Z,101234.92
2023-05-25T21:45:57.279Z,101234.79
2023-05-25T21:48:26.184Z,101232.41
2023-05-25T21:50:52.418Z,101225.98
2023-05-25T21:53:27.423Z,101225.42
2023-05-25T21:55:50.698Z,101229.16
2023-05-25T21:58:17.739Z,101231.94
2023-05-25T22:00:45.790Z,101233.02
2023-05-25T22:03:19.017Z,101234.88
2023-05-25T22:05:38.602Z,101232.05
2023-05-25T22:08:07.101Z,101232.26
2023-05-25T22:10:32.514Z,101228.95
2023-05-25T22:13:08.341Z,101225.12
2023-05-25T22:15:36.195Z,101223.06
2023-05-25T22:18:10.859Z,101227.69
2023-05-25T22:20:45.808Z,101227.18
2023-05-25T22:23:22.121Z,101226.19
2023-05-25T22:25:57.001Z,101221.65
2023-05-25T22:28:32.959Z,101219.67
2023-05-25T22:31:08.288Z,101218.89
2023-05-25T22:33:31.930Z,101219.08
2023-05-25T22:36:07.646Z,101219.29
2023-05-25T22:38:43.286Z,101216.34
2023-05-25T22:41:22.833Z,101218.83
2023-05-25T22:43:57.867Z,101221.89
2023-05-25T22:46:31.591Z,101222.21
2023-05-25T22:49:07.975Z,101217.16
2023-05-25T22:51:35.079Z,101214.71
2023-05-25T22:54:09.783Z,101206.84
2023-05-25T22:56:37.237Z,101206.09
2023-05-25T22:59:11.957Z,101200.66
2023-05-25T23:01:35.188Z,101205.63
2023-05-25T23:03:53.830Z,101208.96
2023-05-25T23:06:23.142Z,101203.75
2023-05-25T23:08:56.990Z,101203.46
2023-05-25T23:11:20.523Z,101200.92
2023-05-25T23:13:55.858Z,101196.11
2023-05-25T23:16:19.906Z,101196.62
2023-05-25T23:18:54.753Z,101192.04
2023-05-25T23:21:17.383Z,101199.60
2023-05-25T23:23:42.044Z,101195.34
2023-05-25T23:26:18.369Z,101194.52
2023-05-25T23:28:53.531Z,101194.97
2023-05-25T23:31:28.024Z,101193.61
2023-05-25T23:33:54.988Z,101192.48
2023-05-25T23:36:18.653Z,101191.98
2023-05-25T23:38:45.699Z,101198.08
2023-05-25T23:41:09.407Z,101193.34
2023-05-25T23:43:36.636Z,101194.89
2023-05-25T23:46:10.809Z,101193.58
2023-05-25T23:48:37.440Z,101193.34
2023-05-25T23:51:13.459Z,101191.28
2023-05-25T23:53:39.456Z,101193.13
2023-05-25T23:56:12.729Z,101194.56
2023-05-25T23:58:41.660Z,101195.15
